sensor_id;sensor_type;location;lat;lon;timestamp;pressure;altitude;pressure_sealevel;temperature;humidity
62789;BME280;66401;42.016;21.454;2023-04-01T00:01:22;97356.03;;;13.72;47.96
62789;BME280;66401;42.016;21.454;2023-04-01T00:03:47;97359.19;;;13.74;49.23
62789;BME280;66401;42.016;21.454;2023-04-01T00:06:15;97334.94;;;13.22;49.71
62789;BME280;66401;42.016;21.454;2023-04-01T00:08:41;97355.50;;;12.72;50.76
62789;BME280;66401;42.016;21.454;2023-04-01T00:11:06;97348.31;;;13.14;49.67
62789;BME280;66401;42.016;21.454;2023-04-01T00:13:32;97337.19;;;12.83;50.40
62789;BME280;66401;42.016;21.454;2023-04-01T00:15:57;97326.75;;;12.60;50.32
62789;BME280;66401;42.016;21.454;2023-04-01T00:18:24;97370.59;;;12.93;50.07
62789;BME280;66401;42.016;21.454;2023-04-01T00:20:51;97373.66;;;13.02;49.33
62789;BME280;66401;42.016;21.454;2023-04-01T00:23:18;97360.13;;;13.28;49.09
62789;BME280;66401;42.016;21.454;2023-04-01T00:25:44;97355.47;;;13.18;48.98
62789;BME280;66401;42.016;21.454;2023-04-01T00:28:12;97349.94;;;13.55;49.02
62789;BME280;66401;42.016;21.454;2023-04-01T00:30:37;97365.53;;;13.79;48.19
62789;BME280;66401;42.016;21.454;2023-04-01T00:33:03;97355.06;;;13.90;47.85
62789;BME280;66401;42.016;21.454;2023-04-01T00:35:29;97375.34;;;13.83;47.82
62789;BME280;66401;42.016;21.454;2023-04-01T00:37:55;97363.31;;;13.42;48.24
62789;BME280;66401;42.016;21.454;2023-04-01T00:40:35;97348.19;;;13.32;49.19
62789;BME280;66401;42.016;21.454;2023-04-01T00:43:35;97313.91;;;12.82;49.84
62789;BME280;66401;42.016;21.454;2023-04-01T00:46:01;97326.75;;;12.83;50.74
62789;BME280;66401;42.016;21.454;2023-04-01T00:48:54;97331.50;;;12.98;51.15
62789;BME280;66401;42.016;21.454;2023-04-01T00:51:24;97308.31;;;13.02;50.07
62789;BME280;66401;42.016;21.454;2023-04-01T00:53:53;97314.94;;;12.69;51.41
62789;BME280;66401;42.016;21.454;2023-04-01T00:56:25;97301.44;;;12.49;52.09
62789;BME280;66401;42.016;21.454;2023-04-01T00:59:02;97298.38;;;12.40;51.93
62789;BME280;66401;42.016;21.454;2023-04-01T01:01:30;97307.78;;;12.53;50.60
62789;BME280;66401;42.016;21.454;2023-04-01T01:03:56;97306.28;;;12.92;50.04
62789;BME280;66401;42.016;21.454;2023-04-01T01:06:50;97322.97;;;13.14;49.14
62789;BME280;66401;42.016;21.454;2023-04-01T01:09:25;97312.94;;;13.35;49.47
62789;BME280;66401;42.016;21.454;2023-04-01T01:18:03;97307.50;;;13.25;49.26
62789;BME280;66401;42.016;21.454;2023-04-01T01:29:02;97301.94;;;13.78;48.77
62789;BME280;66401;42.016;21.454;2023-04-01T01:36:45;97291.03;;;13.01;50.43
62789;BME280;66401;42.016;21.454;2023-04-01T01:39:14;97307.75;;;13.23;49.01
62789;BME280;66401;42.016;21.454;2023-04-01T01:41:41;97258.41;;;13.15;48.43
62789;BME280;66401;42.016;21.454;2023-04-01T01:44:11;97288.75;;;13.56;48.32
62789;BME280;66401;42.016;21.454;2023-04-01T01:46:38;97283.63;;;13.21;50.97
62789;BME280;66401;42.016;21.454;2023-04-01T01:49:07;97275.41;;;13.29;50.79
62789;BME280;66401;42.016;21.454;2023-04-01T01:51:34;97278.41;;;13.50;49.74
62789;BME280;66401;42.016;21.454;2023-04-01T01:54:00;97281.75;;;12.81;52.37
62789;BME280;66401;42.016;21.454;2023-04-01T01:56:27;97272.47;;;12.62;51.94
62789;BME280;66401;42.016;21.454;2023-04-01T01:59:01;97272.53;;;12.90;51.76
62789;BME280;66401;42.016;21.454;2023-04-01T02:01:30;97249.22;;;12.49;51.51
62789;BME280;66401;42.016;21.454;2023-04-01T02:03:57;97256.13;;;12.67;50.61
62789;BME280;66401;42.016;21.454;2023-04-01T02:06:26;97267.59;;;12.42;51.44
62789;BME280;66401;42.016;21.454;2023-04-01T02:08:58;97277.03;;;12.31;51.37
62789;BME280;66401;42.016;21.454;2023-04-01T02:14:22;97276.38;;;13.00;50.90
62789;BME280;66401;42.016;21.454;2023-04-01T02:19:27;97260.53;;;13.18;50.55
62789;BME280;66401;42.016;21.454;2023-04-01T02:22:00;97258.97;;;12.65;52.03
62789;BME280;66401;42.016;21.454;2023-04-01T02:24:27;97255.28;;;12.89;51.41
62789;BME280;66401;42.016;21.454;2023-04-01T02:26:54;97263.81;;;12.73;52.25
62789;BME280;66401;42.016;21.454;2023-04-01T02:29:22;97269.91;;;13.02;51.80
62789;BME280;66401;42.016;21.454;2023-04-01T02:31:49;97237.63;;;12.56;52.70
62789;BME280;66401;42.016;21.454;2023-04-01T02:34:15;97256.53;;;12.87;52.61
62789;BME280;66401;42.016;21.454;2023-04-01T02:36:41;97248.56;;;12.94;52.05
62789;BME280;66401;42.016;21.454;2023-04-01T02:39:08;97254.56;;;13.06;52.29
62789;BME280;66401;42.016;21.454;2023-04-01T02:41:41;97242.38;;;13.23;51.29
62789;BME280;66401;42.016;21.454;2023-04-01T02:44:07;97248.72;;;13.15;51.79
62789;BME280;66401;42.016;21.454;2023-04-01T02:46:33;97234.63;;;12.76;52.45
62789;BME280;66401;42.016;21.454;2023-04-01T02:48:58;97241.75;;;12.93;52.29
62789;BME280;66401;42.016;21.454;2023-04-01T02:51:25;97245.94;;;13.05;51.95
62789;BME280;66401;42.016;21.454;2023-04-01T02:53:51;97233.81;;;12.87;52.79
62789;BME280;66401;42.016;21.454;2023-04-01T02:56:17;97217.94;;;12.77;52.59
62789;BME280;66401;42.016;21.454;2023-04-01T02:58:42;97200.88;;;12.86;52.59
62789;BME280;66401;42.016;21.454;2023-04-01T03:01:08;97234.69;;;13.05;53.11
62789;BME280;66401;42.016;21.454;2023-04-01T03:03:33;97232.38;;;13.20;51.72
62789;BME280;66401;42.016;21.454;2023-04-01T03:06:07;97223.97;;;13.06;51.86
62789;BME280;66401;42.016;21.454;2023-04-01T03:08:33;97225.22;;;12.64;52.48
62789;BME280;66401;42.016;21.454;2023-04-01T03:10:59;97215.66;;;12.69;52.85
62789;BME280;66401;42.016;21.454;2023-04-01T03:13:25;97196.75;;;12.90;53.45
62789;BME280;66401;42.016;21.454;2023-04-01T03:15:50;97200.28;;;12.96;52.28
62789;BME280;66401;42.016;21.454;2023-04-01T03:18:16;97188.34;;;12.88;53.18
62789;BME280;66401;42.016;21.454;2023-04-01T03:20:41;97205.75;;;12.83;54.31
62789;BME280;66401;42.016;21.454;2023-04-01T03:23:07;97209.06;;;12.78;53.57
62789;BME280;66401;42.016;21.454;2023-04-01T03:25:33;97202.50;;;12.64;54.58
62789;BME280;66401;42.016;21.454;2023-04-01T03:27:58;97195.53;;;12.81;52.98
62789;BME280;66401;42.016;21.454;2023-04-01T03:30:25;97198.00;;;12.48;54.32
62789;BME280;66401;42.016;21.454;2023-04-01T03:32:51;97193.47;;;12.31;56.06
62789;BME280;66401;42.016;21.454;2023-04-01T03:35:18;97193.91;;;12.52;54.45
62789;BME280;66401;42.016;21.454;2023-04-01T03:37:43;97194.88;;;12.74;54.63
62789;BME280;66401;42.016;21.454;2023-04-01T03:40:09;97184.31;;;12.69;54.15
62789;BME280;66401;42.016;21.454;2023-04-01T03:42:35;97195.28;;;12.83;53.30
62789;BME280;66401;42.016;21.454;2023-04-01T03:45:01;97190.78;;;12.78;53.19
62789;BME280;66401;42.016;21.454;2023-04-01T03:47:27;97202.72;;;12.63;54.86
62789;BME280;66401;42.016;21.454;2023-04-01T03:49:53;97204.31;;;12.75;53.53
62789;BME280;66401;42.016;21.454;2023-04-01T03:52:19;97192.97;;;12.58;53.73
62789;BME280;66401;42.016;21.454;2023-04-01T03:54:44;97205.28;;;12.46;54.90
62789;BME280;66401;42.016;21.454;2023-04-01T03:57:10;97209.00;;;12.50;54.08
62789;BME280;66401;42.016;21.454;2023-04-01T03:59:35;97190.25;;;12.53;53.71
62789;BME280;66401;42.016;21.454;2023-04-01T04:02:01;97200.59;;;12.59;53.53
62789;BME280;66401;42.016;21.454;2023-04-01T04:04:27;97192.47;;;12.21;54.95
62789;BME280;66401;42.016;21.454;2023-04-01T04:06:52;97196.53;;;12.40;54.30
62789;BME280;66401;42.016;21.454;2023-04-01T04:09:18;97195.72;;;12.40;54.49
62789;BME280;66401;42.016;21.454;2023-04-01T04:11:43;97186.19;;;12.33;54.79
62789;BME280;66401;42.016;21.454;2023-04-01T04:14:09;97188.72;;;12.05;55.20
62789;BME280;66401;42.016;21.454;2023-04-01T04:16:36;97202.72;;;11.69;55.73
62789;BME280;66401;42.016;21.454;2023-04-01T04:19:02;97180.38;;;11.61;55.87
62789;BME280;66401;42.016;21.454;2023-04-01T04:21:28;97179.34;;;11.74;55.56
62789;BME280;66401;42.016;21.454;2023-04-01T04:23:54;97204.03;;;12.13;54.68
62789;BME280;66401;42.016;21.454;2023-04-01T04:26:19;97164.19;;;11.83;54.87
62789;BME280;66401;42.016;21.454;2023-04-01T04:28:45;97179.53;;;12.02;55.74
62789;BME280;66401;42.016;21.454;2023-04-01T04:31:10;97160.94;;;11.87;54.98
62789;BME280;66401;42.016;21.454;2023-04-01T04:33:36;97173.91;;;11.75;55.82
62789;BME280;66401;42.016;21.454;2023-04-01T04:36:03;97167.28;;;11.91;55.35
62789;BME280;66401;42.016;21.454;2023-04-01T04:38:29;97171.03;;;12.07;54.64
62789;BME280;66401;42.016;21.454;2023-04-01T04:40:55;97153.53;;;11.96;55.51
62789;BME280;66401;42.016;21.454;2023-04-01T04:43:21;97138.78;;;12.13;54.05
62789;BME280;66401;42.016;21.454;2023-04-01T04:45:46;97149.81;;;11.92;54.74
62789;BME280;66401;42.016;21.454;2023-04-01T04:48:14;97144.03;;;11.90;55.41
62789;BME280;66401;42.016;21.454;2023-04-01T04:50:43;97141.50;;;11.71;55.30
62789;BME280;66401;42.016;21.454;2023-04-01T04:53:10;97162.16;;;12.08;55.69
62789;BME280;66401;42.016;21.454;2023-04-01T04:55:36;97154.78;;;12.28;54.59
62789;BME280;66401;42.016;21.454;2023-04-01T04:58:03;97128.59;;;12.00;54.17
62789;BME280;66401;42.016;21.454;2023-04-01T05:00:29;97162.81;;;12.39;53.27
62789;BME280;66401;42.016;21.454;2023-04-01T05:02:54;97181.78;;;12.22;53.18
62789;BME280;66401;42.016;21.454;2023-04-01T05:05:21;97178.22;;;12.52;52.79
62789;BME280;66401;42.016;21.454;2023-04-01T05:07:47;97150.09;;;12.30;52.64
62789;BME280;66401;42.016;21.454;2023-04-01T05:10:12;97131.97;;;12.12;54.02
62789;BME280;66401;42.016;21.454;2023-04-01T05:12:37;97126.66;;;12.59;53.11
62789;BME280;66401;42.016;21.454;2023-04-01T05:15:08;97129.66;;;12.79;53.12
62789;BME280;66401;42.016;21.454;2023-04-01T05:17:33;97130.97;;;13.22;50.73
62789;BME280;66401;42.016;21.454;2023-04-01T05:19:59;97138.38;;;13.13;50.69
62789;BME280;66401;42.016;21.454;2023-04-01T05:22:25;97132.44;;;12.89;50.73
62789;BME280;66401;42.016;21.454;2023-04-01T05:24:51;97145.38;;;12.68;51.50
62789;BME280;66401;42.016;21.454;2023-04-01T05:27:17;97131.28;;;12.69;51.94
62789;BME280;66401;42.016;21.454;2023-04-01T05:29:42;97111.56;;;12.09;52.39
62789;BME280;66401;42.016;21.454;2023-04-01T05:32:08;97098.72;;;12.19;53.14
62789;BME280;66401;42.016;21.454;2023-04-01T05:34:33;97127.78;;;12.92;52.97
62789;BME280;66401;42.016;21.454;2023-04-01T05:36:59;97101.09;;;12.89;52.38
62789;BME280;66401;42.016;21.454;2023-04-01T05:39:24;97084.03;;;13.49;49.61
62789;BME280;66401;42.016;21.454;2023-04-01T05:41:50;97065.25;;;13.69;48.57
62789;BME280;66401;42.016;21.454;2023-04-01T05:44:15;97081.50;;;13.71;49.10
62789;BME280;66401;42.016;21.454;2023-04-01T05:46:41;97085.81;;;13.43;47.68
62789;BME280;66401;42.016;21.454;2023-04-01T05:49:07;97093.53;;;13.05;50.64
62789;BME280;66401;42.016;21.454;2023-04-01T05:51:32;97067.41;;;13.22;49.56
62789;BME280;66401;42.016;21.454;2023-04-01T05:53:58;97086.50;;;13.39;49.44
62789;BME280;66401;42.016;21.454;2023-04-01T05:56:23;97103.94;;;13.50;49.66
62789;BME280;66401;42.016;21.454;2023-04-01T05:58:52;97090.44;;;14.14;49.18
62789;BME280;66401;42.016;21.454;2023-04-01T06:01:18;97068.28;;;14.43;46.65
62789;BME280;66401;42.016;21.454;2023-04-01T06:03:44;97068.03;;;14.23;47.54
62789;BME280;66401;42.016;21.454;2023-04-01T06:06:24;97052.56;;;14.43;47.25
62789;BME280;66401;42.016;21.454;2023-04-01T06:08:52;97086.19;;;14.29;47.61
62789;BME280;66401;42.016;21.454;2023-04-01T06:30:47;97077.97;;;14.43;46.61
62789;BME280;66401;42.016;21.454;2023-04-01T06:43:59;97059.41;;;13.45;50.67
62789;BME280;66401;42.016;21.454;2023-04-01T06:46:45;97061.75;;;13.80;50.59
62789;BME280;66401;42.016;21.454;2023-04-01T06:49:27;97039.91;;;13.91;48.75
62789;BME280;66401;42.016;21.454;2023-04-01T06:54:55;97004.88;;;13.54;49.53
62789;BME280;66401;42.016;21.454;2023-04-01T06:59:51;97013.91;;;14.07;50.26
62789;BME280;66401;42.016;21.454;2023-04-01T07:02:31;97009.34;;;13.97;49.05
62789;BME280;66401;42.016;21.454;2023-04-01T07:04:59;97007.28;;;14.21;48.25
62789;BME280;66401;42.016;21.454;2023-04-01T07:07:41;97017.16;;;14.41;47.85
62789;BME280;66401;42.016;21.454;2023-04-01T07:10:21;96999.41;;;14.70;47.32
62789;BME280;66401;42.016;21.454;2023-04-01T07:13:00;97000.34;;;15.23;46.67
62789;BME280;66401;42.016;21.454;2023-04-01T07:18:02;96973.19;;;15.44;44.72
62789;BME280;66401;42.016;21.454;2023-04-01T07:20:32;96986.53;;;15.80;44.09
62789;BME280;66401;42.016;21.454;2023-04-01T07:23:03;96985.28;;;15.92;43.32
62789;BME280;66401;42.016;21.454;2023-04-01T07:25:38;97007.47;;;15.69;44.45
62789;BME280;66401;42.016;21.454;2023-04-01T07:28:13;97000.28;;;16.02;43.64
62789;BME280;66401;42.016;21.454;2023-04-01T07:36:21;96985.72;;;16.67;41.67
62789;BME280;66401;42.016;21.454;2023-04-01T07:39:04;96990.13;;;16.36;43.36
62789;BME280;66401;42.016;21.454;2023-04-01T07:44:16;96960.00;;;16.90;42.34
62789;BME280;66401;42.016;21.454;2023-04-01T07:49:35;96965.03;;;17.96;41.19
62789;BME280;66401;42.016;21.454;2023-04-01T07:52:40;96961.50;;;18.16;39.99
62789;BME280;66401;42.016;21.454;2023-04-01T07:55:24;96944.28;;;18.34;40.43
62789;BME280;66401;42.016;21.454;2023-04-01T07:58:03;96940.72;;;18.15;40.92
62789;BME280;66401;42.016;21.454;2023-04-01T08:00:34;96921.78;;;18.02;40.51
62789;BME280;66401;42.016;21.454;2023-04-01T08:03:21;96949.25;;;17.91;41.25
62789;BME280;66401;42.016;21.454;2023-04-01T08:09:09;96928.28;;;17.61;41.11
62789;BME280;66401;42.016;21.454;2023-04-01T08:14:33;96907.25;;;18.10;41.88
62789;BME280;66401;42.016;21.454;2023-04-01T08:17:10;96912.88;;;18.77;41.34
62789;BME280;66401;42.016;21.454;2023-04-01T08:19:59;96927.63;;;19.36;39.49
62789;BME280;66401;42.016;21.454;2023-04-01T08:22:38;96909.31;;;19.68;39.53
62789;BME280;66401;42.016;21.454;2023-04-01T08:25:06;96887.56;;;19.53;39.11
62789;BME280;66401;42.016;21.454;2023-04-01T08:27:38;96915.94;;;19.90;38.45
62789;BME280;66401;42.016;21.454;2023-04-01T08:30:24;96903.13;;;19.30;39.78
62789;BME280;66401;42.016;21.454;2023-04-01T08:32:56;96871.91;;;18.84;39.37
62789;BME280;66401;42.016;21.454;2023-04-01T08:38:42;96896.81;;;19.02;39.69
62789;BME280;66401;42.016;21.454;2023-04-01T08:49:41;96898.94;;;19.00;38.88
62789;BME280;66401;42.016;21.454;2023-04-01T08:52:33;96900.47;;;19.06;38.95
62789;BME280;66401;42.016;21.454;2023-04-01T08:57:56;96886.84;;;19.23;38.86
62789;BME280;66401;42.016;21.454;2023-04-01T09:00:31;96895.34;;;19.39;38.82
62789;BME280;66401;42.016;21.454;2023-04-01T09:10:49;96892.19;;;18.55;40.25
62789;BME280;66401;42.016;21.454;2023-04-01T09:18:59;96864.25;;;18.20;41.62
62789;BME280;66401;42.016;21.454;2023-04-01T09:27:04;96864.00;;;17.72;43.38
62789;BME280;66401;42.016;21.454;2023-04-01T09:47:08;96952.09;;;17.10;54.42
62789;BME280;66401;42.016;21.454;2023-04-01T10:18:46;96933.13;;;16.37;60.31
62789;BME280;66401;42.016;21.454;2023-04-01T10:40:56;96920.63;;;19.93;47.36
62789;BME280;66401;42.016;21.454;2023-04-01T10:55:27;96895.25;;;21.82;43.84
62789;BME280;66401;42.016;21.454;2023-04-01T11:04:22;96882.72;;;20.21;39.78
62789;BME280;66401;42.016;21.454;2023-04-01T11:07:16;96884.47;;;20.45;39.48
62789;BME280;66401;42.016;21.454;2023-04-01T11:23:44;96885.28;;;19.70;45.47
62789;BME280;66401;42.016;21.454;2023-04-01T11:44:27;96866.94;;;18.15;48.22
62789;BME280;66401;42.016;21.454;2023-04-01T11:55:35;96873.06;;;18.05;49.24
62789;BME280;66401;42.016;21.454;2023-04-01T11:58:37;96889.44;;;18.36;48.24
62789;BME280;66401;42.016;21.454;2023-04-01T12:04:43;96890.66;;;18.10;49.17
62789;BME280;66401;42.016;21.454;2023-04-01T12:07:34;96900.34;;;17.65;50.45
62789;BME280;66401;42.016;21.454;2023-04-01T12:10:17;96898.22;;;17.77;47.67
62789;BME280;66401;42.016;21.454;2023-04-01T12:15:24;96959.13;;;17.40;49.03
62789;BME280;66401;42.016;21.454;2023-04-01T12:44:27;96919.28;;;18.60;45.74
62789;BME280;66401;42.016;21.454;2023-04-01T12:53:08;96898.28;;;18.50;44.93
62789;BME280;66401;42.016;21.454;2023-04-01T12:55:40;96892.94;;;18.66;44.71
62789;BME280;66401;42.016;21.454;2023-04-01T13:01:11;96887.22;;;18.48;43.06
62789;BME280;66401;42.016;21.454;2023-04-01T13:14:59;96865.88;;;19.56;42.67
62789;BME280;66401;42.016;21.454;2023-04-01T13:20:11;96861.06;;;19.82;38.03
62789;BME280;66401;42.016;21.454;2023-04-01T13:28:20;96842.78;;;20.04;37.02
62789;BME280;66401;42.016;21.454;2023-04-01T13:36:37;96823.91;;;20.11;37.46
62789;BME280;66401;42.016;21.454;2023-04-01T13:39:28;96808.56;;;20.13;36.56
62789;BME280;66401;42.016;21.454;2023-04-01T13:44:56;96786.06;;;19.96;33.82
62789;BME280;66401;42.016;21.454;2023-04-01T13:47:52;96777.28;;;20.01;32.20
62789;BME280;66401;42.016;21.454;2023-04-01T13:59:00;96743.97;;;19.67;30.30
62789;BME280;66401;42.016;21.454;2023-04-01T14:04:30;96747.88;;;19.32;30.02
62789;BME280;66401;42.016;21.454;2023-04-01T14:12:06;96777.97;;;18.59;31.72
62789;BME280;66401;42.016;21.454;2023-04-01T14:14:55;96793.88;;;18.49;31.75
62789;BME280;66401;42.016;21.454;2023-04-01T14:32:44;96838.31;;;18.32;30.79
62789;BME280;66401;42.016;21.454;2023-04-01T14:34:44;96838.72;;;18.49;30.49
62789;BME280;66401;42.016;21.454;2023-04-01T14:37:34;96856.84;;;18.56;31.25
62789;BME280;66401;42.016;21.454;2023-04-01T14:40:12;96856.28;;;18.59;30.75
62789;BME280;66401;42.016;21.454;2023-04-01T14:46:11;96865.03;;;18.54;31.07
62789;BME280;66401;42.016;21.454;2023-04-01T14:51:28;96878.16;;;18.59;31.38
62789;BME280;66401;42.016;21.454;2023-04-01T14:59:08;96877.75;;;18.47;31.10
62789;BME280;66401;42.016;21.454;2023-04-01T15:02:03;96879.41;;;18.33;30.81
62789;BME280;66401;42.016;21.454;2023-04-01T15:04:41;96894.78;;;18.26;31.32
62789;BME280;66401;42.016;21.454;2023-04-01T15:10:01;96893.75;;;18.22;30.72
62789;BME280;66401;42.016;21.454;2023-04-01T15:15:31;96890.72;;;17.99;32.00
62789;BME280;66401;42.016;21.454;2023-04-01T15:23:22;96876.59;;;17.80;31.12
62789;BME280;66401;42.016;21.454;2023-04-01T15:31:36;96867.22;;;17.59;31.29
62789;BME280;66401;42.016;21.454;2023-04-01T15:36:45;96850.41;;;17.50;30.67
62789;BME280;66401;42.016;21.454;2023-04-01T15:47:31;96871.97;;;17.46;30.60
62789;BME280;66401;42.016;21.454;2023-04-01T15:55:50;96890.13;;;17.53;30.68
62789;BME280;66401;42.016;21.454;2023-04-01T16:09:02;96869.19;;;17.17;30.74
62789;BME280;66401;42.016;21.454;2023-04-01T16:11:52;96906.25;;;17.31;30.51
62789;BME280;66401;42.016;21.454;2023-04-01T16:15:03;96907.84;;;17.32;30.80
62789;BME280;66401;42.016;21.454;2023-04-01T16:21:05;96896.78;;;17.25;30.12
62789;BME280;66401;42.016;21.454;2023-04-01T16:23:55;96899.97;;;17.17;30.66
62789;BME280;66401;42.016;21.454;2023-04-01T16:31:43;96929.97;;;17.06;30.84
62789;BME280;66401;42.016;21.454;2023-04-01T16:34:23;96925.78;;;17.00;31.89
62789;BME280;66401;42.016;21.454;2023-04-01T16:37:11;96934.75;;;16.99;31.46
62789;BME280;66401;42.016;21.454;2023-04-01T16:42:24;96948.94;;;16.87;31.68
62789;BME280;66401;42.016;21.454;2023-04-01T16:45:17;96959.47;;;16.82;30.80
62789;BME280;66401;42.016;21.454;2023-04-01T16:47:50;96929.44;;;16.58;31.67
62789;BME280;66401;42.016;21.454;2023-04-01T16:55:55;96992.59;;;16.73;31.96
62789;BME280;66401;42.016;21.454;2023-04-01T17:01:36;97000.44;;;16.63;31.87
62789;BME280;66401;42.016;21.454;2023-04-01T17:04:17;97013.06;;;16.61;31.26
62789;BME280;66401;42.016;21.454;2023-04-01T17:06:53;97019.88;;;16.52;32.26
62789;BME280;66401;42.016;21.454;2023-04-01T17:23:11;97071.69;;;15.94;39.17
62789;BME280;66401;42.016;21.454;2023-04-01T17:36:19;97095.03;;;14.94;43.30
62789;BME280;66401;42.016;21.454;2023-04-01T17:38:54;97121.44;;;15.14;44.20
62789;BME280;66401;42.016;21.454;2023-04-01T17:47:26;97172.44;;;14.36;45.37
62789;BME280;66401;42.016;21.454;2023-04-01T17:52:47;97185.78;;;14.51;46.89
62789;BME280;66401;42.016;21.454;2023-04-01T17:58:00;97197.59;;;14.37;47.55
62789;BME280;66401;42.016;21.454;2023-04-01T18:00:38;97203.44;;;14.06;49.06
62789;BME280;66401;42.016;21.454;2023-04-01T18:08:56;97224.88;;;14.02;49.96
62789;BME280;66401;42.016;21.454;2023-04-01T18:14:51;97240.53;;;13.69;51.20
62789;BME280;66401;42.016;21.454;2023-04-01T18:20:24;97246.53;;;13.81;49.54
62789;BME280;66401;42.016;21.454;2023-04-01T18:23:02;97263.56;;;13.84;49.22
62789;BME280;66401;42.016;21.454;2023-04-01T18:25:34;97261.50;;;13.86;48.81
62789;BME280;66401;42.016;21.454;2023-04-01T18:31:04;97278.97;;;13.80;49.29
62789;BME280;66401;42.016;21.454;2023-04-01T18:38:37;97269.16;;;13.59;49.20
62789;BME280;66401;42.016;21.454;2023-04-01T18:44:34;97293.84;;;13.63;48.44
62789;BME280;66401;42.016;21.454;2023-04-01T18:49:48;97297.84;;;13.25;49.26
62789;BME280;66401;42.016;21.454;2023-04-01T18:54:55;97299.44;;;13.55;49.25
62789;BME280;66401;42.016;21.454;2023-04-01T18:57:22;97309.97;;;13.60;47.92
62789;BME280;66401;42.016;21.454;2023-04-01T18:59:55;97310.28;;;13.46;48.61
62789;BME280;66401;42.016;21.454;2023-04-01T19:07:42;97312.94;;;13.63;48.58
62789;BME280;66401;42.016;21.454;2023-04-01T19:12:59;97321.25;;;13.60;48.64
62789;BME280;66401;42.016;21.454;2023-04-01T19:16:05;97323.78;;;13.55;48.85
62789;BME280;66401;42.016;21.454;2023-04-01T19:21:21;97327.38;;;13.37;50.94
62789;BME280;66401;42.016;21.454;2023-04-01T19:26:34;97330.56;;;13.28;50.91
62789;BME280;66401;42.016;21.454;2023-04-01T19:29:17;97329.78;;;13.27;50.47
62789;BME280;66401;42.016;21.454;2023-04-01T19:37:43;97347.84;;;13.29;49.57
62789;BME280;66401;42.016;21.454;2023-04-01T19:40:52;97349.66;;;13.28;50.38
62789;BME280;66401;42.016;21.454;2023-04-01T19:43:22;97345.13;;;13.35;49.25
62789;BME280;66401;42.016;21.454;2023-04-01T19:54:25;97351.06;;;13.19;49.08
62789;BME280;66401;42.016;21.454;2023-04-01T20:11:34;97347.44;;;12.97;48.39
62789;BME280;66401;42.016;21.454;2023-04-01T20:19:44;97357.97;;;13.13;49.22
62789;BME280;66401;42.016;21.454;2023-04-01T20:22:24;97360.81;;;13.00;49.59
62789;BME280;66401;42.016;21.454;2023-04-01T20:24:58;97366.97;;;13.06;49.02
62789;BME280;66401;42.016;21.454;2023-04-01T20:27:29;97366.03;;;13.12;49.14
62789;BME280;66401;42.016;21.454;2023-04-01T20:38:41;97361.38;;;13.02;50.74
62789;BME280;66401;42.016;21.454;2023-04-01T20:44:10;97374.69;;;13.01;50.19
62789;BME280;66401;42.016;21.454;2023-04-01T21:08:39;97385.66;;;10.81;57.91
62789;BME280;66401;42.016;21.454;2023-04-01T21:11:12;97400.44;;;10.62;59.04
62789;BME280;66401;42.016;21.454;2023-04-01T21:19:02;97407.91;;;10.27;61.45
62789;BME280;66401;42.016;21.454;2023-04-01T21:27:23;97418.00;;;10.03;63.32
62789;BME280;66401;42.016;21.454;2023-04-01T21:35:35;97411.53;;;9.81;64.98
62789;BME280;66401;42.016;21.454;2023-04-01T21:38:35;97411.84;;;9.53;65.63
62789;BME280;66401;42.016;21.454;2023-04-01T21:41:39;97414.00;;;9.63;65.98
62789;BME280;66401;42.016;21.454;2023-04-01T22:00:33;97432.63;;;9.60;66.92
62789;BME280;66401;42.016;21.454;2023-04-01T22:03:20;97435.44;;;9.52;67.20
62789;BME280;66401;42.016;21.454;2023-04-01T22:06:00;97436.47;;;9.44;67.98
62789;BME280;66401;42.016;21.454;2023-04-01T22:11:34;97438.69;;;9.40;68.22
62789;BME280;66401;42.016;21.454;2023-04-01T22:14:26;97450.47;;;9.50;66.92
62789;BME280;66401;42.016;21.454;2023-04-01T22:22:25;97448.28;;;9.40;67.90
62789;BME280;66401;42.016;21.454;2023-04-01T22:27:58;97467.22;;;9.60;67.21
62789;BME280;66401;42.016;21.454;2023-04-01T22:40:59;97480.47;;;9.39;67.97
62789;BME280;66401;42.016;21.454;2023-04-01T22:43:38;97457.88;;;9.26;68.07
62789;BME280;66401;42.016;21.454;2023-04-01T22:48:43;97484.88;;;9.32;68.12
62789;BME280;66401;42.016;21.454;2023-04-01T22:56:21;97493.09;;;9.22;68.46
62789;BME280;66401;42.016;21.454;2023-04-01T22:58:52;97490.47;;;9.29;68.66
62789;BME280;66401;42.016;21.454;2023-04-01T23:01:28;97471.50;;;9.28;68.30
62789;BME280;66401;42.016;21.454;2023-04-01T23:03:55;97482.91;;;9.14;68.76
62789;BME280;66401;42.016;21.454;2023-04-01T23:06:37;97475.69;;;9.23;68.70
62789;BME280;66401;42.016;21.454;2023-04-01T23:09:16;97471.31;;;9.10;68.84
62789;BME280;66401;42.016;21.454;2023-04-01T23:11:58;97467.72;;;9.11;68.96
62789;BME280;66401;42.016;21.454;2023-04-01T23:14:34;97471.72;;;9.20;68.67
62789;BME280;66401;42.016;21.454;2023-04-01T23:20:26;97461.50;;;9.25;67.94
62789;BME280;66401;42.016;21.454;2023-04-01T23:26:39;97468.91;;;9.15;68.73
62789;BME280;66401;42.016;21.454;2023-04-01T23:29:13;97464.09;;;9.25;68.84
62789;BME280;66401;42.016;21.454;2023-04-01T23:32:02;97469.97;;;9.72;66.43
62789;BME280;66401;42.016;21.454;2023-04-01T23:34:34;97457.44;;;10.00;65.84
62789;BME280;66401;42.016;21.454;2023-04-01T23:37:11;97454.56;;;10.22;65.04
62789;BME280;66401;42.016;21.454;2023-04-01T23:39:39;97454.06;;;10.00;66.12
62789;BME280;66401;42.016;21.454;2023-04-01T23:42:12;97452.94;;;10.21;65.36
62789;BME280;66401;42.016;21.454;2023-04-01T23:44:39;97448.63;;;10.08;65.89
62789;BME280;66401;42.016;21.454;2023-04-01T23:47:06;97443.59;;;9.75;66.67
62789;BME280;66401;42.016;21.454;2023-04-01T23:49:40;97445.78;;;9.65;67.44